sensor_id;sensor_type;location;lat;lon;timestamp;pressure;altitude;pressure_sealevel;temperature;humidity
70982;BME280;58640;51.320;9.456;2023-02-02T00:00:07;99456.88;;;5.08;75.46
70982;BME280;58640;51.320;9.456;2023-02-02T00:02:33;99449.13;;;5.24;74.85
70982;BME280;58640;51.320;9.456;2023-02-02T00:04:58;99444.38;;;5.18;75.34
70982;BME280;58640;51.320;9.456;2023-02-02T00:07:23;99448.84;;;5.17;75.05
70982;BME280;58640;51.320;9.456;2023-02-02T00:09:49;99450.84;;;5.06;75.98
70982;BME280;58640;51.320;9.456;2023-02-02T00:12:14;99444.81;;;5.13;75.72
70982;BME280;58640;51.320;9.456;2023-02-02T00:14:39;99454.91;;;5.19;74.99
70982;BME280;58640;51.320;9.456;2023-02-02T00:17:08;99453.75;;;5.22;74.64
70982;BME280;58640;51.320;9.456;2023-02-02T00:19:34;99461.50;;;5.25;76.01
70982;BME280;58640;51.320;9.456;2023-02-02T00:22:00;99457.97;;;5.34;74.80
70982;BME280;58640;51.320;9.456;2023-02-02T00:24:25;99459.50;;;5.46;74.84
70982;BME280;58640;51.320;9.456;2023-02-02T00:26:58;99446.72;;;5.40;74.03
70982;BME280;58640;51.320;9.456;2023-02-02T00:29:26;99452.06;;;5.40;74.74
70982;BME280;58640;51.320;9.456;2023-02-02T00:31:52;99455.47;;;5.23;74.18
70982;BME280;58640;51.320;9.456;2023-02-02T00:34:17;99455.31;;;5.34;74.28
70982;BME280;58640;51.320;9.456;2023-02-02T00:36:43;99457.28;;;5.22;74.62
70982;BME280;58640;51.320;9.456;2023-02-02T00:39:13;99455.59;;;5.21;75.17
70982;BME280;58640;51.320;9.456;2023-02-02T00:41:38;99459.09;;;5.12;76.00
70982;BME280;58640;51.320;9.456;2023-02-02T00:44:04;99462.91;;;5.29;75.24
70982;BME280;58640;51.320;9.456;2023-02-02T00:46:47;99471.03;;;5.18;75.41
70982;BME280;58640;51.320;9.456;2023-02-02T00:49:13;99465.72;;;5.18;75.57
70982;BME280;58640;51.320;9.456;2023-02-02T00:51:38;99462.47;;;5.14;75.44
70982;BME280;58640;51.320;9.456;2023-02-02T00:54:04;99472.84;;;4.98;75.86
70982;BME280;58640;51.320;9.456;2023-02-02T00:56:29;99467.66;;;4.97;75.94
70982;BME280;58640;51.320;9.456;2023-02-02T00:58:55;99476.50;;;4.88;76.23
70982;BME280;58640;51.320;9.456;2023-02-02T01:01:21;99470.03;;;4.90;76.36
70982;BME280;58640;51.320;9.456;2023-02-02T01:03:48;99478.19;;;4.79;76.33
70982;BME280;58640;51.320;9.456;2023-02-02T01:06:13;99480.28;;;4.85;75.95
70982;BME280;58640;51.320;9.456;2023-02-02T01:08:39;99480.97;;;4.78;75.85
70982;BME280;58640;51.320;9.456;2023-02-02T01:11:05;99474.13;;;4.85;75.08
70982;BME280;58640;51.320;9.456;2023-02-02T01:13:31;99472.56;;;4.92;74.94
70982;BME280;58640;51.320;9.456;2023-02-02T01:15:57;99480.56;;;4.92;74.38
70982;BME280;58640;51.320;9.456;2023-02-02T01:18:23;99474.69;;;4.88;74.66
70982;BME280;58640;51.320;9.456;2023-02-02T01:21:15;99473.84;;;4.78;74.94
70982;BME280;58640;51.320;9.456;2023-02-02T01:23:41;99466.13;;;4.85;74.98
70982;BME280;58640;51.320;9.456;2023-02-02T01:26:09;99469.75;;;4.84;75.18
70982;BME280;58640;51.320;9.456;2023-02-02T01:28:35;99486.19;;;4.89;74.83
70982;BME280;58640;51.320;9.456;2023-02-02T01:31:15;99482.56;;;4.99;75.15
70982;BME280;58640;51.320;9.456;2023-02-02T01:33:41;99479.03;;;4.89;75.14
70982;BME280;58640;51.320;9.456;2023-02-02T01:36:12;99490.13;;;4.94;74.90
70982;BME280;58640;51.320;9.456;2023-02-02T01:38:37;99493.06;;;4.82;75.31
70982;BME280;58640;51.320;9.456;2023-02-02T01:41:04;99486.88;;;4.91;74.85
70982;BME280;58640;51.320;9.456;2023-02-02T01:43:52;99486.19;;;4.89;75.21
70982;BME280;58640;51.320;9.456;2023-02-02T01:46:22;99493.75;;;4.93;74.97
70982;BME280;58640;51.320;9.456;2023-02-02T01:49:13;99509.06;;;4.82;75.29
70982;BME280;58640;51.320;9.456;2023-02-02T01:51:50;99503.16;;;4.88;74.94
70982;BME280;58640;51.320;9.456;2023-02-02T01:54:28;99499.94;;;4.94;74.75
70982;BME280;58640;51.320;9.456;2023-02-02T01:56:59;99501.88;;;4.82;75.37
70982;BME280;58640;51.320;9.456;2023-02-02T01:59:25;99499.50;;;4.89;74.90
70982;BME280;58640;51.320;9.456;2023-02-02T02:01:51;99502.28;;;4.78;75.49
70982;BME280;58640;51.320;9.456;2023-02-02T02:04:19;99503.16;;;4.78;75.45
70982;BME280;58640;51.320;9.456;2023-02-02T02:06:46;99496.13;;;4.77;75.51
70982;BME280;58640;51.320;9.456;2023-02-02T02:09:12;99506.91;;;4.76;75.76
70982;BME280;58640;51.320;9.456;2023-02-02T02:11:38;99508.19;;;4.72;76.00
70982;BME280;58640;51.320;9.456;2023-02-02T02:14:07;99511.53;;;4.64;76.07
70982;BME280;58640;51.320;9.456;2023-02-02T02:17:11;99508.19;;;4.72;75.97
70982;BME280;58640;51.320;9.456;2023-02-02T02:23:18;99511.75;;;4.51;77.11
70982;BME280;58640;51.320;9.456;2023-02-02T02:31:46;99518.53;;;4.65;76.71
70982;BME280;58640;51.320;9.456;2023-02-02T02:34:23;99515.56;;;4.59;77.00
70982;BME280;58640;51.320;9.456;2023-02-02T02:37:07;99512.06;;;4.58;77.18
70982;BME280;58640;51.320;9.456;2023-02-02T02:39:43;99528.91;;;4.59;77.75
70982;BME280;58640;51.320;9.456;2023-02-02T02:42:16;99508.41;;;4.49;78.20
70982;BME280;58640;51.320;9.456;2023-02-02T02:44:43;99523.25;;;4.52;78.48
70982;BME280;58640;51.320;9.456;2023-02-02T02:47:09;99525.22;;;4.50;78.66
70982;BME280;58640;51.320;9.456;2023-02-02T02:49:46;99532.28;;;4.61;78.28
70982;BME280;58640;51.320;9.456;2023-02-02T02:52:12;99532.81;;;4.55;78.60
70982;BME280;58640;51.320;9.456;2023-02-02T02:54:49;99529.34;;;4.64;78.27
70982;BME280;58640;51.320;9.456;2023-02-02T02:57:52;99533.66;;;4.55;78.65
70982;BME280;58640;51.320;9.456;2023-02-02T03:00:39;99543.84;;;4.50;78.90
70982;BME280;58640;51.320;9.456;2023-02-02T03:06:26;99544.59;;;4.62;78.71
70982;BME280;58640;51.320;9.456;2023-02-02T03:08:58;99544.72;;;4.50;79.25
70982;BME280;58640;51.320;9.456;2023-02-02T03:11:25;99544.63;;;4.71;78.43
70982;BME280;58640;51.320;9.456;2023-02-02T03:13:50;99540.66;;;4.46;79.11
70982;BME280;58640;51.320;9.456;2023-02-02T03:16:16;99540.53;;;4.58;78.13
70982;BME280;58640;51.320;9.456;2023-02-02T03:18:41;99541.81;;;4.63;78.08
70982;BME280;58640;51.320;9.456;2023-02-02T03:21:07;99545.31;;;4.64;77.98
70982;BME280;58640;51.320;9.456;2023-02-02T03:23:32;99548.91;;;4.43;78.87
70982;BME280;58640;51.320;9.456;2023-02-02T03:25:58;99543.88;;;4.60;78.24
70982;BME280;58640;51.320;9.456;2023-02-02T03:28:24;99534.94;;;4.61;78.30
70982;BME280;58640;51.320;9.456;2023-02-02T03:30:50;99551.06;;;4.59;78.35
70982;BME280;58640;51.320;9.456;2023-02-02T03:33:16;99545.19;;;4.65;77.97
70982;BME280;58640;51.320;9.456;2023-02-02T03:35:43;99547.56;;;4.68;78.20
70982;BME280;58640;51.320;9.456;2023-02-02T03:38:08;99554.47;;;4.71;78.09
70982;BME280;58640;51.320;9.456;2023-02-02T03:40:34;99547.72;;;4.67;78.64
70982;BME280;58640;51.320;9.456;2023-02-02T03:43:00;99555.72;;;4.76;78.28
70982;BME280;58640;51.320;9.456;2023-02-02T03:45:28;99553.72;;;4.59;79.40
70982;BME280;58640;51.320;9.456;2023-02-02T03:47:54;99560.88;;;4.68;79.45
70982;BME280;58640;51.320;9.456;2023-02-02T03:50:19;99553.19;;;4.75;79.14
70982;BME280;58640;51.320;9.456;2023-02-02T03:52:45;99558.97;;;4.80;78.86
70982;BME280;58640;51.320;9.456;2023-02-02T03:55:10;99555.59;;;4.78;79.20
70982;BME280;58640;51.320;9.456;2023-02-02T03:57:35;99563.44;;;4.79;79.48
70982;BME280;58640;51.320;9.456;2023-02-02T04:00:01;99548.47;;;4.88;79.35
70982;BME280;58640;51.320;9.456;2023-02-02T04:02:26;99564.44;;;4.78;79.98
70982;BME280;58640;51.320;9.456;2023-02-02T04:04:51;99559.72;;;5.01;79.23
70982;BME280;58640;51.320;9.456;2023-02-02T04:07:17;99556.78;;;5.13;78.62
70982;BME280;58640;51.320;9.456;2023-02-02T04:09:42;99563.50;;;5.08;79.08
70982;BME280;58640;51.320;9.456;2023-02-02T04:12:07;99556.91;;;4.93;79.64
70982;BME280;58640;51.320;9.456;2023-02-02T04:14:33;99557.22;;;5.09;78.90
70982;BME280;58640;51.320;9.456;2023-02-02T04:16:58;99564.50;;;5.07;79.13
70982;BME280;58640;51.320;9.456;2023-02-02T04:19:23;99562.53;;;5.09;78.59
70982;BME280;58640;51.320;9.456;2023-02-02T04:21:49;99553.97;;;5.05;78.88
70982;BME280;58640;51.320;9.456;2023-02-02T04:24:14;99552.00;;;5.07;78.93
70982;BME280;58640;51.320;9.456;2023-02-02T04:26:40;99564.63;;;5.05;79.32
70982;BME280;58640;51.320;9.456;2023-02-02T04:29:05;99568.00;;;4.98;78.91
70982;BME280;58640;51.320;9.456;2023-02-02T04:31:31;99564.63;;;4.96;79.35
70982;BME280;58640;51.320;9.456;2023-02-02T04:33:56;99562.69;;;5.07;78.92
70982;BME280;58640;51.320;9.456;2023-02-02T04:36:22;99562.69;;;5.07;78.65
70982;BME280;58640;51.320;9.456;2023-02-02T04:38:48;99569.81;;;5.07;79.05
70982;BME280;58640;51.320;9.456;2023-02-02T04:41:13;99567.59;;;5.21;78.87
70982;BME280;58640;51.320;9.456;2023-02-02T04:43:39;99571.63;;;5.06;79.10
70982;BME280;58640;51.320;9.456;2023-02-02T04:46:04;99574.59;;;5.13;79.39
70982;BME280;58640;51.320;9.456;2023-02-02T04:48:30;99575.47;;;5.32;78.75
70982;BME280;58640;51.320;9.456;2023-02-02T04:50:59;99574.59;;;5.22;78.82
70982;BME280;58640;51.320;9.456;2023-02-02T04:53:25;99575.47;;;5.23;79.09
70982;BME280;58640;51.320;9.456;2023-02-02T04:55:51;99580.06;;;5.11;79.57
70982;BME280;58640;51.320;9.456;2023-02-02T04:58:16;99584.84;;;5.17;79.68
70982;BME280;58640;51.320;9.456;2023-02-02T05:00:42;99585.28;;;5.22;78.37
70982;BME280;58640;51.320;9.456;2023-02-02T05:03:08;99583.88;;;5.18;78.86
70982;BME280;58640;51.320;9.456;2023-02-02T05:05:33;99582.63;;;5.32;78.87
70982;BME280;58640;51.320;9.456;2023-02-02T05:07:58;99586.97;;;5.23;79.52
70982;BME280;58640;51.320;9.456;2023-02-02T05:10:24;99584.53;;;5.11;79.78
70982;BME280;58640;51.320;9.456;2023-02-02T05:12:52;99583.28;;;5.05;80.07
70982;BME280;58640;51.320;9.456;2023-02-02T05:15:17;99584.16;;;5.15;79.90
70982;BME280;58640;51.320;9.456;2023-02-02T05:17:42;99589.34;;;5.07;80.63
70982;BME280;58640;51.320;9.456;2023-02-02T05:20:08;99588.19;;;5.10;80.46
70982;BME280;58640;51.320;9.456;2023-02-02T05:22:34;99587.59;;;4.97;80.70
70982;BME280;58640;51.320;9.456;2023-02-02T05:24:59;99592.97;;;5.16;80.51
70982;BME280;58640;51.320;9.456;2023-02-02T05:27:25;99591.41;;;4.94;81.42
70982;BME280;58640;51.320;9.456;2023-02-02T05:29:50;99594.22;;;4.93;81.86
70982;BME280;58640;51.320;9.456;2023-02-02T05:32:15;99590.25;;;4.87;82.50
70982;BME280;58640;51.320;9.456;2023-02-02T05:34:41;99594.38;;;5.01;82.07
70982;BME280;58640;51.320;9.456;2023-02-02T05:37:06;99594.88;;;4.85;82.71
70982;BME280;58640;51.320;9.456;2023-02-02T05:39:31;99593.06;;;4.95;82.47
70982;BME280;58640;51.320;9.456;2023-02-02T05:41:57;99599.09;;;4.88;83.51
70982;BME280;58640;51.320;9.456;2023-02-02T05:44:22;99600.34;;;4.84;84.20
70982;BME280;58640;51.320;9.456;2023-02-02T05:46:48;99616.31;;;4.84;84.94
70982;BME280;58640;51.320;9.456;2023-02-02T05:49:13;99628.16;;;4.61;86.89
70982;BME280;58640;51.320;9.456;2023-02-02T05:51:51;99631.78;;;4.90;85.86
70982;BME280;58640;51.320;9.456;2023-02-02T05:54:17;99614.88;;;4.70;87.13
70982;BME280;58640;51.320;9.456;2023-02-02T05:56:49;99613.91;;;4.71;87.10
70982;BME280;58640;51.320;9.456;2023-02-02T05:59:15;99620.69;;;4.85;86.50
70982;BME280;58640;51.320;9.456;2023-02-02T06:01:41;99616.28;;;4.74;87.59
70982;BME280;58640;51.320;9.456;2023-02-02T06:04:07;99616.25;;;4.65;88.38
70982;BME280;58640;51.320;9.456;2023-02-02T06:06:33;99618.53;;;4.39;90.31
70982;BME280;58640;51.320;9.456;2023-02-02T06:09:00;99628.34;;;4.38;90.42
70982;BME280;58640;51.320;9.456;2023-02-02T06:11:25;99621.00;;;4.31;91.30
70982;BME280;58640;51.320;9.456;2023-02-02T06:13:50;99621.47;;;4.15;92.88
70982;BME280;58640;51.320;9.456;2023-02-02T06:16:16;99626.28;;;4.21;92.62
70982;BME280;58640;51.320;9.456;2023-02-02T06:18:41;99635.69;;;4.25;92.35
70982;BME280;58640;51.320;9.456;2023-02-02T06:21:06;99636.28;;;4.29;91.76
70982;BME280;58640;51.320;9.456;2023-02-02T06:23:32;99637.38;;;4.26;92.31
70982;BME280;58640;51.320;9.456;2023-02-02T06:25:58;99644.59;;;4.35;90.98
70982;BME280;58640;51.320;9.456;2023-02-02T06:28:24;99647.94;;;4.37;91.30
70982;BME280;58640;51.320;9.456;2023-02-02T06:30:50;99652.19;;;4.19;92.97
70982;BME280;58640;51.320;9.456;2023-02-02T06:33:15;99645.94;;;4.30;91.99
70982;BME280;58640;51.320;9.456;2023-02-02T06:35:41;99637.16;;;4.39;90.96
70982;BME280;58640;51.320;9.456;2023-02-02T06:38:07;99634.06;;;4.13;93.39
70982;BME280;58640;51.320;9.456;2023-02-02T06:40:32;99640.69;;;4.19;92.62
70982;BME280;58640;51.320;9.456;2023-02-02T06:42:59;99646.09;;;4.08;93.78
70982;BME280;58640;51.320;9.456;2023-02-02T06:45:25;99654.41;;;4.14;93.86
70982;BME280;58640;51.320;9.456;2023-02-02T06:47:51;99660.81;;;4.12;94.38
70982;BME280;58640;51.320;9.456;2023-02-02T06:50:17;99662.53;;;4.13;94.65
70982;BME280;58640;51.320;9.456;2023-02-02T06:52:49;99660.94;;;4.10;94.92
70982;BME280;58640;51.320;9.456;2023-02-02T06:55:15;99665.44;;;4.10;95.42
70982;BME280;58640;51.320;9.456;2023-02-02T06:57:41;99667.00;;;4.12;95.63
70982;BME280;58640;51.320;9.456;2023-02-02T07:00:07;99672.44;;;4.11;96.18
70982;BME280;58640;51.320;9.456;2023-02-02T07:02:33;99687.16;;;4.15;96.58
70982;BME280;58640;51.320;9.456;2023-02-02T07:04:58;99687.75;;;4.18;96.36
70982;BME280;58640;51.320;9.456;2023-02-02T07:07:23;99694.94;;;4.18;96.49
70982;BME280;58640;51.320;9.456;2023-02-02T07:09:49;99697.94;;;4.13;97.17
70982;BME280;58640;51.320;9.456;2023-02-02T07:12:14;99692.06;;;4.10;97.43
70982;BME280;58640;51.320;9.456;2023-02-02T07:14:39;99692.88;;;4.10;97.73
70982;BME280;58640;51.320;9.456;2023-02-02T07:17:05;99693.28;;;4.26;96.88
70982;BME280;58640;51.320;9.456;2023-02-02T07:19:30;99694.59;;;4.11;95.02
70982;BME280;58640;51.320;9.456;2023-02-02T07:21:55;99697.13;;;4.13;95.19
70982;BME280;58640;51.320;9.456;2023-02-02T07:24:21;99689.63;;;4.07;94.27
70982;BME280;58640;51.320;9.456;2023-02-02T07:26:46;99695.88;;;3.96;94.53
70982;BME280;58640;51.320;9.456;2023-02-02T07:29:12;99692.94;;;3.99;94.02
70982;BME280;58640;51.320;9.456;2023-02-02T07:31:38;99701.44;;;3.93;94.81
70982;BME280;58640;51.320;9.456;2023-02-02T07:34:04;99699.03;;;3.90;95.07
70982;BME280;58640;51.320;9.456;2023-02-02T07:36:29;99709.34;;;3.84;95.69
70982;BME280;58640;51.320;9.456;2023-02-02T07:38:55;99722.34;;;3.98;94.52
70982;BME280;58640;51.320;9.456;2023-02-02T07:41:21;99724.66;;;3.91;94.50
70982;BME280;58640;51.320;9.456;2023-02-02T07:43:48;99736.25;;;4.01;93.44
70982;BME280;58640;51.320;9.456;2023-02-02T07:46:14;99744.31;;;3.79;92.71
70982;BME280;58640;51.320;9.456;2023-02-02T07:48:39;99744.72;;;3.53;93.20
70982;BME280;58640;51.320;9.456;2023-02-02T07:51:07;99751.00;;;3.63;92.70
70982;BME280;58640;51.320;9.456;2023-02-02T07:53:34;99767.34;;;3.58;93.09
70982;BME280;58640;51.320;9.456;2023-02-02T07:56:21;99755.16;;;3.56;91.96
70982;BME280;58640;51.320;9.456;2023-02-02T07:58:50;99760.94;;;3.50;93.05
70982;BME280;58640;51.320;9.456;2023-02-02T08:01:15;99769.97;;;3.69;91.75
70982;BME280;58640;51.320;9.456;2023-02-02T08:03:42;99764.31;;;3.52;93.07
70982;BME280;58640;51.320;9.456;2023-02-02T08:06:13;99764.34;;;3.41;93.38
70982;BME280;58640;51.320;9.456;2023-02-02T08:08:39;99775.34;;;3.36;94.36
70982;BME280;58640;51.320;9.456;2023-02-02T08:11:07;99773.97;;;3.53;93.43
70982;BME280;58640;51.320;9.456;2023-02-02T08:13:33;99767.25;;;3.27;92.43
70982;BME280;58640;51.320;9.456;2023-02-02T08:15:58;99766.91;;;3.20;92.88
70982;BME280;58640;51.320;9.456;2023-02-02T08:18:23;99773.66;;;3.13;93.64
70982;BME280;58640;51.320;9.456;2023-02-02T08:20:49;99771.50;;;3.18;93.35
70982;BME280;58640;51.320;9.456;2023-02-02T08:23:16;99776.19;;;3.15;93.82
70982;BME280;58640;51.320;9.456;2023-02-02T08:25:42;99775.81;;;3.08;93.55
70982;BME280;58640;51.320;9.456;2023-02-02T08:28:08;99778.97;;;3.13;93.24
70982;BME280;58640;51.320;9.456;2023-02-02T08:30:34;99776.69;;;3.09;93.33
70982;BME280;58640;51.320;9.456;2023-02-02T08:32:59;99783.94;;;3.07;94.12
70982;BME280;58640;51.320;9.456;2023-02-02T08:35:25;99784.03;;;3.16;93.83
70982;BME280;58640;51.320;9.456;2023-02-02T08:37:50;99788.16;;;3.09;94.36
70982;BME280;58640;51.320;9.456;2023-02-02T08:40:16;99792.50;;;2.99;95.81
70982;BME280;58640;51.320;9.456;2023-02-02T08:42:41;99793.00;;;3.04;95.84
70982;BME280;58640;51.320;9.456;2023-02-02T08:45:07;99791.66;;;3.10;95.38
70982;BME280;58640;51.320;9.456;2023-02-02T08:47:33;99788.16;;;3.09;95.57
70982;BME280;58640;51.320;9.456;2023-02-02T08:49:58;99789.13;;;3.08;95.93
70982;BME280;58640;51.320;9.456;2023-02-02T08:52:23;99790.34;;;3.04;96.25
70982;BME280;58640;51.320;9.456;2023-02-02T08:54:49;99796.75;;;3.02;96.35
70982;BME280;58640;51.320;9.456;2023-02-02T08:57:14;99794.31;;;2.98;96.03
70982;BME280;58640;51.320;9.456;2023-02-02T08:59:39;99806.41;;;3.03;95.86
70982;BME280;58640;51.320;9.456;2023-02-02T09:02:05;99805.44;;;3.03;94.88
70982;BME280;58640;51.320;9.456;2023-02-02T09:04:30;99804.94;;;2.98;95.11
70982;BME280;58640;51.320;9.456;2023-02-02T09:06:55;99809.28;;;2.77;96.83
70982;BME280;58640;51.320;9.456;2023-02-02T09:09:21;99812.50;;;2.81;97.13
70982;BME280;58640;51.320;9.456;2023-02-02T09:11:46;99813.25;;;2.94;97.01
70982;BME280;58640;51.320;9.456;2023-02-02T09:14:12;99815.09;;;2.93;97.05
70982;BME280;58640;51.320;9.456;2023-02-02T09:16:38;99816.53;;;2.97;95.88
70982;BME280;58640;51.320;9.456;2023-02-02T09:19:04;99806.75;;;2.98;96.30
70982;BME280;58640;51.320;9.456;2023-02-02T09:21:30;99806.75;;;2.98;96.34
70982;BME280;58640;51.320;9.456;2023-02-02T09:23:55;99814.25;;;3.04;95.48
70982;BME280;58640;51.320;9.456;2023-02-02T09:26:23;99812.69;;;3.02;95.86
70982;BME280;58640;51.320;9.456;2023-02-02T09:28:54;99828.59;;;2.90;96.21
70982;BME280;58640;51.320;9.456;2023-02-02T09:31:20;99829.06;;;2.84;96.08
70982;BME280;58640;51.320;9.456;2023-02-02T09:33:46;99834.38;;;2.84;96.09
70982;BME280;58640;51.320;9.456;2023-02-02T09:36:24;99839.94;;;2.81;96.44
70982;BME280;58640;51.320;9.456;2023-02-02T09:38:51;99843.56;;;2.80;96.13
70982;BME280;58640;51.320;9.456;2023-02-02T09:49:56;99861.25;;;2.58;96.90
70982;BME280;58640;51.320;9.456;2023-02-02T09:52:24;99858.13;;;2.64;96.89
70982;BME280;58640;51.320;9.456;2023-02-02T09:54:55;99862.25;;;2.68;96.28
70982;BME280;58640;51.320;9.456;2023-02-02T09:57:25;99864.53;;;2.72;95.75
70982;BME280;58640;51.320;9.456;2023-02-02T10:03:26;99864.69;;;2.82;93.50
70982;BME280;58640;51.320;9.456;2023-02-02T10:06:25;99871.31;;;2.76;94.75
70982;BME280;58640;51.320;9.456;2023-02-02T10:08:51;99872.41;;;2.74;94.18
70982;BME280;58640;51.320;9.456;2023-02-02T10:11:36;99876.16;;;2.82;94.79
70982;BME280;58640;51.320;9.456;2023-02-02T10:14:10;99880.00;;;2.78;94.72
70982;BME280;58640;51.320;9.456;2023-02-02T10:16:39;99887.22;;;2.65;93.83
70982;BME280;58640;51.320;9.456;2023-02-02T10:19:10;99885.69;;;2.74;94.68
70982;BME280;58640;51.320;9.456;2023-02-02T10:21:59;99884.31;;;2.68;95.91
70982;BME280;58640;51.320;9.456;2023-02-02T10:24:29;99885.56;;;2.75;94.33
70982;BME280;58640;51.320;9.456;2023-02-02T10:26:58;99893.50;;;2.64;94.88
70982;BME280;58640;51.320;9.456;2023-02-02T10:29:32;99890.28;;;2.48;95.59
70982;BME280;58640;51.320;9.456;2023-02-02T12:08:25;99955.47;;;2.76;93.47
70982;BME280;58640;51.320;9.456;2023-02-02T12:10:57;99957.13;;;2.66;94.01
70982;BME280;58640;51.320;9.456;2023-02-02T12:13:48;99947.38;;;2.77;93.20
70982;BME280;58640;51.320;9.456;2023-02-02T12:16:50;99952.91;;;2.74;93.65
70982;BME280;58640;51.320;9.456;2023-02-02T12:19:34;99954.34;;;2.67;94.43
70982;BME280;58640;51.320;9.456;2023-02-02T12:22:18;99955.19;;;2.68;94.02
70982;BME280;58640;51.320;9.456;2023-02-02T12:24:55;99953.75;;;2.75;93.95
70982;BME280;58640;51.320;9.456;2023-02-02T12:27:31;99956.66;;;2.72;94.13
70982;BME280;58640;51.320;9.456;2023-02-02T12:30:09;99955.63;;;2.62;95.05
70982;BME280;58640;51.320;9.456;2023-02-02T12:39:07;99950.47;;;2.71;94.89
70982;BME280;58640;51.320;9.456;2023-02-02T12:58:43;99965.41;;;2.85;94.81
70982;BME280;58640;51.320;9.456;2023-02-02T13:01:20;99952.81;;;2.76;95.79
70982;BME280;58640;51.320;9.456;2023-02-02T13:06:51;99958.19;;;2.87;95.36
70982;BME280;58640;51.320;9.456;2023-02-02T13:12:22;99961.25;;;3.05;95.69
70982;BME280;58640;51.320;9.456;2023-02-02T13:14:55;99965.25;;;3.10;96.08
70982;BME280;58640;51.320;9.456;2023-02-02T13:17:37;99962.94;;;3.06;94.89
70982;BME280;58640;51.320;9.456;2023-02-02T13:20:57;99952.22;;;3.18;94.50
70982;BME280;58640;51.320;9.456;2023-02-02T13:22:58;99951.50;;;3.27;94.86
70982;BME280;58640;51.320;9.456;2023-02-02T13:25:34;99959.41;;;3.29;94.02
70982;BME280;58640;51.320;9.456;2023-02-02T13:28:03;99965.56;;;3.40;93.99
70982;BME280;58640;51.320;9.456;2023-02-02T13:30:35;99964.84;;;3.38;94.03
70982;BME280;58640;51.320;9.456;2023-02-02T13:33:06;99970.34;;;3.24;94.24
70982;BME280;58640;51.320;9.456;2023-02-02T13:38:21;99966.78;;;3.36;94.88
70982;BME280;58640;51.320;9.456;2023-02-02T13:40:47;99964.72;;;3.29;95.56
70982;BME280;58640;51.320;9.456;2023-02-02T13:48:51;99978.53;;;3.10;97.05
70982;BME280;58640;51.320;9.456;2023-02-02T13:51:41;99981.47;;;3.18;96.75
70982;BME280;58640;51.320;9.456;2023-02-02T14:00:14;99976.53;;;3.25;96.76
70982;BME280;58640;51.320;9.456;2023-02-02T14:02:52;99977.28;;;3.38;96.76
70982;BME280;58640;51.320;9.456;2023-02-02T14:05:28;99980.53;;;3.30;97.47
70982;BME280;58640;51.320;9.456;2023-02-02T14:08:05;99979.81;;;3.28;97.60
70982;BME280;58640;51.320;9.456;2023-02-02T14:10:38;99978.59;;;3.32;97.24
70982;BME280;58640;51.320;9.456;2023-02-02T14:16:00;99982.97;;;3.33;97.24
70982;BME280;58640;51.320;9.456;2023-02-02T14:26:53;99991.56;;;3.37;97.05
70982;BME280;58640;51.320;9.456;2023-02-02T14:39:55;100007.00;;;3.32;97.45
70982;BME280;58640;51.320;9.456;2023-02-02T14:45:38;100014.03;;;3.44;96.92
70982;BME280;58640;51.320;9.456;2023-02-02T14:48:17;100026.59;;;3.42;97.36
70982;BME280;58640;51.320;9.456;2023-02-02T14:50:47;100021.41;;;3.40;97.80
70982;BME280;58640;51.320;9.456;2023-02-02T14:53:16;100024.75;;;3.31;97.80
70982;BME280;58640;51.320;9.456;2023-02-02T14:58:25;100030.84;;;3.44;97.36
70982;BME280;58640;51.320;9.456;2023-02-02T15:03:53;100031.97;;;3.18;97.62
70982;BME280;58640;51.320;9.456;2023-02-02T15:15:26;100050.56;;;3.18;98.64
70982;BME280;58640;51.320;9.456;2023-02-02T15:18:10;100052.44;;;3.29;98.09
70982;BME280;58640;51.320;9.456;2023-02-02T15:20:51;100044.56;;;3.27;98.19
70982;BME280;58640;51.320;9.456;2023-02-02T15:23:30;100047.69;;;3.21;98.79
70982;BME280;58640;51.320;9.456;2023-02-02T15:26:23;100045.06;;;3.32;98.80
70982;BME280;58640;51.320;9.456;2023-02-02T15:28:54;100050.56;;;3.18;99.55
70982;BME280;58640;51.320;9.456;2023-02-02T15:31:46;100059.31;;;3.31;98.80
70982;BME280;58640;51.320;9.456;2023-02-02T15:34:26;100058.84;;;3.37;97.87
70982;BME280;58640;51.320;9.456;2023-02-02T15:36:57;100060.13;;;2.97;99.31
70982;BME280;58640;51.320;9.456;2023-02-02T15:39:37;100056.06;;;3.04;99.38
70982;BME280;58640;51.320;9.456;2023-02-02T15:42:20;100057.53;;;3.08;98.97
70982;BME280;58640;51.320;9.456;2023-02-02T15:45:05;100066.06;;;3.00;99.69
70982;BME280;58640;51.320;9.456;2023-02-02T15:47:36;100056.94;;;2.92;100.00
70982;BME280;58640;51.320;9.456;2023-02-02T15:52:46;100068.31;;;3.18;99.00
70982;BME280;58640;51.320;9.456;2023-02-02T15:57:53;100076.88;;;2.86;99.64
70982;BME280;58640;51.320;9.456;2023-02-02T16:00:33;100085.09;;;2.71;100.00
70982;BME280;58640;51.320;9.456;2023-02-02T16:03:11;100077.13;;;2.71;100.00
70982;BME280;58640;51.320;9.456;2023-02-02T16:05:50;100085.72;;;2.74;100.00
70982;BME280;58640;51.320;9.456;2023-02-02T16:08:23;100091.66;;;2.78;100.00
70982;BME280;58640;51.320;9.456;2023-02-02T16:11:01;100100.81;;;2.74;100.00
70982;BME280;58640;51.320;9.456;2023-02-02T16:13:28;100091.47;;;2.68;100.00
70982;BME280;58640;51.320;9.456;2023-02-02T16:16:02;100097.22;;;2.62;100.00
70982;BME280;58640;51.320;9.456;2023-02-02T16:18:28;100103.06;;;2.67;100.00
70982;BME280;58640;51.320;9.456;2023-02-02T16:20:56;100101.38;;;2.66;100.00
70982;BME280;58640;51.320;9.456;2023-02-02T16:23:27;100106.13;;;2.74;100.00
70982;BME280;58640;51.320;9.456;2023-02-02T16:25:57;100112.28;;;2.74;100.00
70982;BME280;58640;51.320;9.456;2023-02-02T16:28:23;100108.00;;;2.84;100.00
70982;BME280;58640;51.320;9.456;2023-02-02T16:30:49;100127.53;;;2.96;100.00
70982;BME280;58640;51.320;9.456;2023-02-02T16:33:29;100124.66;;;2.99;99.29
70982;BME280;58640;51.320;9.456;2023-02-02T16:35:57;100125.66;;;2.85;100.00
70982;BME280;58640;51.320;9.456;2023-02-02T16:38:32;100127.19;;;3.00;99.89
70982;BME280;58640;51.320;9.456;2023-02-02T16:41:12;100130.69;;;2.77;100.00
70982;BME280;58640;51.320;9.456;2023-02-02T16:43:39;100132.47;;;2.77;100.00
70982;BME280;58640;51.320;9.456;2023-02-02T16:46:10;100134.34;;;2.87;100.00
70982;BME280;58640;51.320;9.456;2023-02-02T16:48:45;100135.75;;;2.80;100.00
70982;BME280;58640;51.320;9.456;2023-02-02T16:56:35;100136.81;;;2.78;100.00